This is the latest recevied weather packets stored in our database for station/object W4MSI. If no packets are shown the sender has not sent any weather packets the latest 1 day(s).
| Time | Temp. | Humidity | Pressure | Rain* | Wind** | Luminosity | Snow |
|---|---|---|---|---|---|---|---|
| 1778017508 | 21.67° C | 61% | 1007.2 hPa | 0 mm | 4.02 m/s, 208° | 181 W/m² | - |
| 1778017204 | 21.67° C | 61% | 1007.3 hPa | 0 mm | 6.26 m/s, 214° | 155 W/m² | - |
| 1778016902 | 21.67° C | 62% | 1007.4 hPa | 0 mm | 2.68 m/s, 242° | 180 W/m² | - |
| 1778016598 | 21.67° C | 63% | 1007.5 hPa | 0 mm | 2.68 m/s, 215° | 141 W/m² | - |
| 1778016295 | 22.22° C | 62% | 1007.3 hPa | 0 mm | 3.58 m/s, 236° | 175 W/m² | - |
| 1778015991 | 22.22° C | 62% | 1007.1 hPa | 0 mm | 1.79 m/s, 216° | 231 W/m² | - |
| 1778015689 | 22.22° C | 62% | 1007.2 hPa | 0 mm | 2.24 m/s, 210° | 217 W/m² | - |
| 1778015385 | 22.22° C | 62% | 1007.2 hPa | 0 mm | 3.58 m/s, 208° | 180 W/m² | - |
| 1778015082 | 21.67° C | 64% | 1007.6 hPa | 0 mm | 1.79 m/s, 229° | 236 W/m² | - |
| 1778014779 | 21.67° C | 63% | 1007.6 hPa | 0 mm | 0.89 m/s, 188° | 124 W/m² | - |
| 1778014478 | 21.67° C | 62% | 1007.6 hPa | 0 mm | 1.79 m/s, 219° | 218 W/m² | - |
| 1778014174 | 22.22° C | 60% | 1007.6 hPa | 0 mm | 5.81 m/s, 229° | 541 W/m² | - |
| 1778013872 | 22.78° C | 59% | 1007.7 hPa | 0 mm | 3.58 m/s, 212° | 306 W/m² | - |
| 1778013569 | 22.78° C | 61% | 1007.4 hPa | 0 mm | 1.79 m/s, 232° | 681 W/m² | - |
| 1778013265 | 22.78° C | 60% | 1007.6 hPa | 0 mm | 2.68 m/s, 208° | 301 W/m² | - |
| 1778012961 | 22.22° C | 59% | 1007.6 hPa | 0 mm | 3.58 m/s, 220° | 261 W/m² | - |
| 1778012658 | 21.67° C | 59% | 1007.8 hPa | 0 mm | 4.92 m/s, 191° | 795 W/m² | - |
| 1778012354 | 22.22° C | 59% | 1007.9 hPa | 0 mm | 4.02 m/s, 193° | 299 W/m² | - |
| 1778012052 | 21.67° C | 59% | 1008 hPa | 0 mm | 5.36 m/s, 204° | 499 W/m² | - |
| 1778011750 | 22.22° C | 59% | 1007.9 hPa | 0 mm | 4.02 m/s, 207° | 314 W/m² | - |
| 1778011447 | 22.78° C | 58% | 1007.9 hPa | 0 mm | 4.02 m/s, 206° | 274 W/m² | - |
| 1778011142 | 22.22° C | 57% | 1007.8 hPa | 0 mm | 4.92 m/s, 200° | 374 W/m² | - |
| 1778010840 | 22.22° C | 60% | 1007.8 hPa | 0 mm | 3.58 m/s, 213° | 793 W/m² | - |
| 1778010536 | 22.22° C | 61% | 1007.8 hPa | 0 mm | 2.68 m/s, 202° | 262 W/m² | - |
| 1778010234 | 22.22° C | 61% | 1008 hPa | 0 mm | 2.24 m/s, 181° | 654 W/m² | - |
* Rain latest hour (hover to see other rain measurements)
** Current wind speed in m/s (hover to see current wind gust speed)